sensor_id;sensor_type;location;lat;lon;timestamp;temperature;humidity
22430;DHT22;11382;48.086;11.632;2023-04-01T00:02:26;7.60;99.90
22430;DHT22;11382;48.086;11.632;2023-04-01T00:04:54;7.50;99.90
22430;DHT22;11382;48.086;11.632;2023-04-01T00:07:22;7.50;99.90
22430;DHT22;11382;48.086;11.632;2023-04-01T00:09:56;7.50;99.90
22430;DHT22;11382;48.086;11.632;2023-04-01T00:12:24;7.60;99.90
22430;DHT22;11382;48.086;11.632;2023-04-01T00:14:52;7.50;99.90
22430;DHT22;11382;48.086;11.632;2023-04-01T00:17:22;7.50;99.90
22430;DHT22;11382;48.086;11.632;2023-04-01T00:19:53;7.50;99.90
22430;DHT22;11382;48.086;11.632;2023-04-01T00:22:22;7.50;99.90
22430;DHT22;11382;48.086;11.632;2023-04-01T00:24:50;7.50;99.90
22430;DHT22;11382;48.086;11.632;2023-04-01T00:27:20;7.50;99.90
22430;DHT22;11382;48.086;11.632;2023-04-01T00:29:48;7.50;99.90
22430;DHT22;11382;48.086;11.632;2023-04-01T00:32:16;7.50;99.90
22430;DHT22;11382;48.086;11.632;2023-04-01T00:34:44;7.40;99.90
22430;DHT22;11382;48.086;11.632;2023-04-01T00:37:13;7.40;99.90
22430;DHT22;11382;48.086;11.632;2023-04-01T00:39:41;7.40;99.90
22430;DHT22;11382;48.086;11.632;2023-04-01T00:42:10;7.40;99.90
22430;DHT22;11382;48.086;11.632;2023-04-01T00:44:39;7.40;99.90
22430;DHT22;11382;48.086;11.632;2023-04-01T00:47:07;7.40;99.90
22430;DHT22;11382;48.086;11.632;2023-04-01T00:49:38;7.40;99.90
22430;DHT22;11382;48.086;11.632;2023-04-01T00:52:08;7.40;99.90
22430;DHT22;11382;48.086;11.632;2023-04-01T00:54:41;7.40;99.90
22430;DHT22;11382;48.086;11.632;2023-04-01T00:57:14;7.30;99.90
22430;DHT22;11382;48.086;11.632;2023-04-01T00:59:45;7.40;99.90
22430;DHT22;11382;48.086;11.632;2023-04-01T01:02:15;7.40;99.90
22430;DHT22;11382;48.086;11.632;2023-04-01T01:04:44;7.40;99.90
22430;DHT22;11382;48.086;11.632;2023-04-01T01:07:19;7.40;99.90
22430;DHT22;11382;48.086;11.632;2023-04-01T01:09:55;7.50;99.90
22430;DHT22;11382;48.086;11.632;2023-04-01T01:12:30;7.50;99.90
22430;DHT22;11382;48.086;11.632;2023-04-01T01:15:05;7.60;99.90
22430;DHT22;11382;48.086;11.632;2023-04-01T01:17:44;7.50;99.90
22430;DHT22;11382;48.086;11.632;2023-04-01T01:20:42;7.60;99.90
22430;DHT22;11382;48.086;11.632;2023-04-01T01:23:57;7.60;99.90
22430;DHT22;11382;48.086;11.632;2023-04-01T01:26:46;7.70;99.90
22430;DHT22;11382;48.086;11.632;2023-04-01T01:32:17;7.70;99.90
22430;DHT22;11382;48.086;11.632;2023-04-01T01:34:52;7.70;99.90
22430;DHT22;11382;48.086;11.632;2023-04-01T01:37:26;7.70;99.90
22430;DHT22;11382;48.086;11.632;2023-04-01T01:39:57;7.80;99.90
22430;DHT22;11382;48.086;11.632;2023-04-01T01:42:31;7.80;99.90
22430;DHT22;11382;48.086;11.632;2023-04-01T01:45:01;7.80;99.90
22430;DHT22;11382;48.086;11.632;2023-04-01T01:47:29;7.80;99.90
22430;DHT22;11382;48.086;11.632;2023-04-01T01:49:58;7.70;99.90
22430;DHT22;11382;48.086;11.632;2023-04-01T01:52:29;7.70;99.90
22430;DHT22;11382;48.086;11.632;2023-04-01T01:54:58;7.60;99.90
22430;DHT22;11382;48.086;11.632;2023-04-01T01:57:36;7.60;99.90
22430;DHT22;11382;48.086;11.632;2023-04-01T02:00:14;7.60;99.90
22430;DHT22;11382;48.086;11.632;2023-04-01T02:02:45;7.60;99.90
22430;DHT22;11382;48.086;11.632;2023-04-01T02:05:17;7.60;99.90
22430;DHT22;11382;48.086;11.632;2023-04-01T02:07:51;7.60;99.90
22430;DHT22;11382;48.086;11.632;2023-04-01T02:10:25;7.60;99.90
22430;DHT22;11382;48.086;11.632;2023-04-01T02:12:59;7.60;99.90
22430;DHT22;11382;48.086;11.632;2023-04-01T02:15:31;7.60;99.90
22430;DHT22;11382;48.086;11.632;2023-04-01T02:18:01;7.60;99.90
22430;DHT22;11382;48.086;11.632;2023-04-01T02:20:30;7.50;99.90
22430;DHT22;11382;48.086;11.632;2023-04-01T02:22:59;7.60;99.90
22430;DHT22;11382;48.086;11.632;2023-04-01T02:25:29;7.60;99.90
22430;DHT22;11382;48.086;11.632;2023-04-01T02:27:59;7.60;99.90
22430;DHT22;11382;48.086;11.632;2023-04-01T02:30:29;7.60;99.90
22430;DHT22;11382;48.086;11.632;2023-04-01T02:32:59;7.60;99.90
22430;DHT22;11382;48.086;11.632;2023-04-01T02:35:29;7.60;99.90
22430;DHT22;11382;48.086;11.632;2023-04-01T02:38:01;7.60;99.90
22430;DHT22;11382;48.086;11.632;2023-04-01T02:40:29;7.60;99.90
22430;DHT22;11382;48.086;11.632;2023-04-01T02:42:57;7.70;99.90
22430;DHT22;11382;48.086;11.632;2023-04-01T02:45:25;7.70;99.90
22430;DHT22;11382;48.086;11.632;2023-04-01T02:47:53;7.70;99.90
22430;DHT22;11382;48.086;11.632;2023-04-01T02:50:21;7.70;99.90
22430;DHT22;11382;48.086;11.632;2023-04-01T02:52:49;7.70;99.90
22430;DHT22;11382;48.086;11.632;2023-04-01T02:55:21;7.70;99.90
22430;DHT22;11382;48.086;11.632;2023-04-01T02:57:49;7.60;99.90
22430;DHT22;11382;48.086;11.632;2023-04-01T03:00:17;7.60;99.90
22430;DHT22;11382;48.086;11.632;2023-04-01T03:02:45;7.60;99.90
22430;DHT22;11382;48.086;11.632;2023-04-01T03:05:14;7.60;99.90
22430;DHT22;11382;48.086;11.632;2023-04-01T03:07:42;7.60;99.90
22430;DHT22;11382;48.086;11.632;2023-04-01T03:10:10;7.60;99.90
22430;DHT22;11382;48.086;11.632;2023-04-01T03:12:39;7.60;99.90
22430;DHT22;11382;48.086;11.632;2023-04-01T03:15:10;7.60;99.90
22430;DHT22;11382;48.086;11.632;2023-04-01T03:17:38;7.50;99.90
22430;DHT22;11382;48.086;11.632;2023-04-01T03:20:08;7.40;99.90
22430;DHT22;11382;48.086;11.632;2023-04-01T03:22:37;7.50;99.90
22430;DHT22;11382;48.086;11.632;2023-04-01T03:25:10;7.50;99.90
22430;DHT22;11382;48.086;11.632;2023-04-01T03:27:39;7.50;99.90
22430;DHT22;11382;48.086;11.632;2023-04-01T03:30:08;7.50;99.90
22430;DHT22;11382;48.086;11.632;2023-04-01T03:32:45;7.50;99.90
22430;DHT22;11382;48.086;11.632;2023-04-01T03:35:14;7.40;99.90
22430;DHT22;11382;48.086;11.632;2023-04-01T03:37:43;7.40;99.90
22430;DHT22;11382;48.086;11.632;2023-04-01T03:40:11;7.30;99.90
22430;DHT22;11382;48.086;11.632;2023-04-01T03:42:40;7.30;99.90
22430;DHT22;11382;48.086;11.632;2023-04-01T03:45:11;7.30;99.90
22430;DHT22;11382;48.086;11.632;2023-04-01T03:47:39;7.30;99.90
22430;DHT22;11382;48.086;11.632;2023-04-01T03:50:08;7.20;99.90
22430;DHT22;11382;48.086;11.632;2023-04-01T03:52:37;7.20;99.90
22430;DHT22;11382;48.086;11.632;2023-04-01T03:55:05;7.20;99.90
22430;DHT22;11382;48.086;11.632;2023-04-01T03:57:36;7.20;99.90
22430;DHT22;11382;48.086;11.632;2023-04-01T04:00:16;7.20;99.90
22430;DHT22;11382;48.086;11.632;2023-04-01T04:02:48;7.20;99.90
22430;DHT22;11382;48.086;11.632;2023-04-01T04:05:21;7.20;99.90
22430;DHT22;11382;48.086;11.632;2023-04-01T04:07:49;7.20;99.90
22430;DHT22;11382;48.086;11.632;2023-04-01T04:10:17;7.20;99.90
22430;DHT22;11382;48.086;11.632;2023-04-01T04:12:45;7.20;99.90
22430;DHT22;11382;48.086;11.632;2023-04-01T04:15:16;7.20;99.90
22430;DHT22;11382;48.086;11.632;2023-04-01T04:17:44;7.10;99.90
22430;DHT22;11382;48.086;11.632;2023-04-01T04:20:14;7.10;99.90
22430;DHT22;11382;48.086;11.632;2023-04-01T04:22:42;7.10;99.90
22430;DHT22;11382;48.086;11.632;2023-04-01T04:25:10;7.10;99.90
22430;DHT22;11382;48.086;11.632;2023-04-01T04:27:38;7.10;99.90
22430;DHT22;11382;48.086;11.632;2023-04-01T04:30:10;7.10;99.90
22430;DHT22;11382;48.086;11.632;2023-04-01T04:32:40;7.10;99.90
22430;DHT22;11382;48.086;11.632;2023-04-01T04:35:10;7.20;99.90
22430;DHT22;11382;48.086;11.632;2023-04-01T04:37:39;7.20;99.90
22430;DHT22;11382;48.086;11.632;2023-04-01T04:40:08;7.20;99.90
22430;DHT22;11382;48.086;11.632;2023-04-01T04:42:36;7.10;99.90
22430;DHT22;11382;48.086;11.632;2023-04-01T04:45:10;7.20;99.90
22430;DHT22;11382;48.086;11.632;2023-04-01T04:47:46;7.20;99.90
22430;DHT22;11382;48.086;11.632;2023-04-01T04:50:14;7.20;99.90
22430;DHT22;11382;48.086;11.632;2023-04-01T04:52:43;7.20;99.90
22430;DHT22;11382;48.086;11.632;2023-04-01T04:55:12;7.20;99.90
22430;DHT22;11382;48.086;11.632;2023-04-01T04:57:44;7.30;99.90
22430;DHT22;11382;48.086;11.632;2023-04-01T05:00:12;7.30;99.90
22430;DHT22;11382;48.086;11.632;2023-04-01T05:02:54;7.30;99.90
22430;DHT22;11382;48.086;11.632;2023-04-01T05:05:23;7.30;99.90
22430;DHT22;11382;48.086;11.632;2023-04-01T05:07:51;7.30;99.90
22430;DHT22;11382;48.086;11.632;2023-04-01T05:10:19;7.40;99.90
22430;DHT22;11382;48.086;11.632;2023-04-01T05:12:48;7.40;99.90
22430;DHT22;11382;48.086;11.632;2023-04-01T05:15:20;7.50;99.90
22430;DHT22;11382;48.086;11.632;2023-04-01T05:17:48;7.60;99.90
22430;DHT22;11382;48.086;11.632;2023-04-01T05:20:18;7.60;99.90
22430;DHT22;11382;48.086;11.632;2023-04-01T05:22:46;7.70;99.90
22430;DHT22;11382;48.086;11.632;2023-04-01T05:25:14;7.80;99.90
22430;DHT22;11382;48.086;11.632;2023-04-01T05:27:43;7.80;99.90
22430;DHT22;11382;48.086;11.632;2023-04-01T05:30:11;7.80;99.90
22430;DHT22;11382;48.086;11.632;2023-04-01T05:32:51;7.80;99.90
22430;DHT22;11382;48.086;11.632;2023-04-01T05:35:21;7.90;99.90
22430;DHT22;11382;48.086;11.632;2023-04-01T05:37:49;8.00;99.90
22430;DHT22;11382;48.086;11.632;2023-04-01T05:40:17;8.10;99.90
22430;DHT22;11382;48.086;11.632;2023-04-01T05:42:45;8.10;99.90
22430;DHT22;11382;48.086;11.632;2023-04-01T05:45:14;8.30;99.90
22430;DHT22;11382;48.086;11.632;2023-04-01T05:47:48;8.60;99.90
22430;DHT22;11382;48.086;11.632;2023-04-01T05:50:18;8.80;99.90
22430;DHT22;11382;48.086;11.632;2023-04-01T05:52:47;9.10;99.90
22430;DHT22;11382;48.086;11.632;2023-04-01T05:55:16;9.30;99.90
22430;DHT22;11382;48.086;11.632;2023-04-01T05:57:45;9.90;99.90
22430;DHT22;11382;48.086;11.632;2023-04-01T06:00:16;10.20;99.90
22430;DHT22;11382;48.086;11.632;2023-04-01T06:02:44;10.10;99.90
22430;DHT22;11382;48.086;11.632;2023-04-01T06:05:16;10.00;99.90
22430;DHT22;11382;48.086;11.632;2023-04-01T06:07:46;10.30;99.90
22430;DHT22;11382;48.086;11.632;2023-04-01T06:10:16;10.70;99.90
22430;DHT22;11382;48.086;11.632;2023-04-01T06:12:51;10.80;99.90
22430;DHT22;11382;48.086;11.632;2023-04-01T06:15:33;10.30;99.90
22430;DHT22;11382;48.086;11.632;2023-04-01T06:21:36;10.50;99.90
22430;DHT22;11382;48.086;11.632;2023-04-01T06:24:23;10.40;99.90
22430;DHT22;11382;48.086;11.632;2023-04-01T06:27:00;10.40;99.90
22430;DHT22;11382;48.086;11.632;2023-04-01T06:29:48;10.10;99.90
22430;DHT22;11382;48.086;11.632;2023-04-01T06:32:42;10.10;99.90
22430;DHT22;11382;48.086;11.632;2023-04-01T06:35:30;10.70;99.90
22430;DHT22;11382;48.086;11.632;2023-04-01T06:38:30;10.60;99.90
22430;DHT22;11382;48.086;11.632;2023-04-01T06:41:44;11.00;99.90
22430;DHT22;11382;48.086;11.632;2023-04-01T06:44:20;10.90;99.90
22430;DHT22;11382;48.086;11.632;2023-04-01T06:47:21;11.10;99.90
22430;DHT22;11382;48.086;11.632;2023-04-01T06:50:17;11.30;99.90
22430;DHT22;11382;48.086;11.632;2023-04-01T06:53:10;11.00;99.90
22430;DHT22;11382;48.086;11.632;2023-04-01T06:56:02;11.20;99.90
22430;DHT22;11382;48.086;11.632;2023-04-01T06:58:58;11.60;99.90
22430;DHT22;11382;48.086;11.632;2023-04-01T07:01:28;11.60;99.90
22430;DHT22;11382;48.086;11.632;2023-04-01T07:04:00;11.20;99.90
22430;DHT22;11382;48.086;11.632;2023-04-01T07:06:32;11.20;99.90
22430;DHT22;11382;48.086;11.632;2023-04-01T07:09:08;11.90;99.90
22430;DHT22;11382;48.086;11.632;2023-04-01T07:12:01;12.00;99.90
22430;DHT22;11382;48.086;11.632;2023-04-01T07:14:54;12.40;99.90
22430;DHT22;11382;48.086;11.632;2023-04-01T07:17:25;11.80;99.90
22430;DHT22;11382;48.086;11.632;2023-04-01T07:19:59;11.20;99.90
22430;DHT22;11382;48.086;11.632;2023-04-01T07:22:32;11.10;99.90
22430;DHT22;11382;48.086;11.632;2023-04-01T07:25:13;11.20;99.90
22430;DHT22;11382;48.086;11.632;2023-04-01T07:27:46;11.10;99.90
22430;DHT22;11382;48.086;11.632;2023-04-01T07:30:17;11.60;99.90
22430;DHT22;11382;48.086;11.632;2023-04-01T07:32:48;12.50;99.90
22430;DHT22;11382;48.086;11.632;2023-04-01T07:35:23;14.00;99.90
22430;DHT22;11382;48.086;11.632;2023-04-01T07:38:07;13.90;99.90
22430;DHT22;11382;48.086;11.632;2023-04-01T07:40:47;13.90;99.90
22430;DHT22;11382;48.086;11.632;2023-04-01T07:43:30;14.00;99.90
22430;DHT22;11382;48.086;11.632;2023-04-01T07:46:28;14.00;99.90
22430;DHT22;11382;48.086;11.632;2023-04-01T07:49:04;13.70;99.90
22430;DHT22;11382;48.086;11.632;2023-04-01T07:51:40;14.00;99.90
22430;DHT22;11382;48.086;11.632;2023-04-01T07:54:18;13.70;99.90
22430;DHT22;11382;48.086;11.632;2023-04-01T07:56:53;14.50;99.90
22430;DHT22;11382;48.086;11.632;2023-04-01T07:59:43;15.20;99.90
22430;DHT22;11382;48.086;11.632;2023-04-01T08:02:36;13.70;99.90
22430;DHT22;11382;48.086;11.632;2023-04-01T08:05:17;13.70;99.90
22430;DHT22;11382;48.086;11.632;2023-04-01T08:07:57;13.00;99.90
22430;DHT22;11382;48.086;11.632;2023-04-01T08:10:48;12.60;99.90
22430;DHT22;11382;48.086;11.632;2023-04-01T08:13:28;12.30;99.90
22430;DHT22;11382;48.086;11.632;2023-04-01T08:16:06;12.10;99.90
22430;DHT22;11382;48.086;11.632;2023-04-01T08:18:53;12.00;99.90
22430;DHT22;11382;48.086;11.632;2023-04-01T08:21:25;12.10;99.90
22430;DHT22;11382;48.086;11.632;2023-04-01T08:23:58;12.10;99.90
22430;DHT22;11382;48.086;11.632;2023-04-01T08:26:35;12.40;99.90
22430;DHT22;11382;48.086;11.632;2023-04-01T08:29:11;12.80;99.90
22430;DHT22;11382;48.086;11.632;2023-04-01T08:31:47;14.40;99.90
22430;DHT22;11382;48.086;11.632;2023-04-01T08:34:21;14.40;99.90
22430;DHT22;11382;48.086;11.632;2023-04-01T08:36:53;15.10;99.90
22430;DHT22;11382;48.086;11.632;2023-04-01T08:39:29;15.20;99.90
22430;DHT22;11382;48.086;11.632;2023-04-01T08:42:17;14.60;99.90
22430;DHT22;11382;48.086;11.632;2023-04-01T08:45:21;14.90;99.90
22430;DHT22;11382;48.086;11.632;2023-04-01T08:48:28;14.20;99.90
22430;DHT22;11382;48.086;11.632;2023-04-01T08:51:22;14.70;99.90
22430;DHT22;11382;48.086;11.632;2023-04-01T08:56:51;13.60;99.90
22430;DHT22;11382;48.086;11.632;2023-04-01T08:59:38;14.00;99.90
22430;DHT22;11382;48.086;11.632;2023-04-01T09:02:59;15.40;99.60
22430;DHT22;11382;48.086;11.632;2023-04-01T09:08:53;15.40;99.50
22430;DHT22;11382;48.086;11.632;2023-04-01T09:11:38;15.40;99.20
22430;DHT22;11382;48.086;11.632;2023-04-01T09:14:40;15.30;99.70
22430;DHT22;11382;48.086;11.632;2023-04-01T09:17:30;14.70;99.80
22430;DHT22;11382;48.086;11.632;2023-04-01T09:20:24;14.40;99.90
22430;DHT22;11382;48.086;11.632;2023-04-01T09:23:15;14.90;99.70
22430;DHT22;11382;48.086;11.632;2023-04-01T09:25:53;14.60;99.90
22430;DHT22;11382;48.086;11.632;2023-04-01T09:28:28;15.90;98.20
22430;DHT22;11382;48.086;11.632;2023-04-01T09:34:53;17.50;96.00
22430;DHT22;11382;48.086;11.632;2023-04-01T09:37:34;16.00;96.80
22430;DHT22;11382;48.086;11.632;2023-04-01T09:40:18;15.50;97.50
22430;DHT22;11382;48.086;11.632;2023-04-01T09:43:16;15.20;97.90
22430;DHT22;11382;48.086;11.632;2023-04-01T09:46:08;14.50;98.40
22430;DHT22;11382;48.086;11.632;2023-04-01T09:48:54;14.50;98.50
22430;DHT22;11382;48.086;11.632;2023-04-01T09:51:37;14.90;98.10
22430;DHT22;11382;48.086;11.632;2023-04-01T09:54:31;15.40;97.60
22430;DHT22;11382;48.086;11.632;2023-04-01T10:01:01;15.70;97.40
22430;DHT22;11382;48.086;11.632;2023-04-01T10:10:43;17.30;95.50
22430;DHT22;11382;48.086;11.632;2023-04-01T10:13:37;16.30;95.60
22430;DHT22;11382;48.086;11.632;2023-04-01T10:19:26;15.40;96.80
22430;DHT22;11382;48.086;11.632;2023-04-01T10:22:25;15.20;96.70
22430;DHT22;11382;48.086;11.632;2023-04-01T10:25:11;14.70;97.60
22430;DHT22;11382;48.086;11.632;2023-04-01T10:31:35;13.70;98.90
22430;DHT22;11382;48.086;11.632;2023-04-01T10:34:36;13.70;99.70
22430;DHT22;11382;48.086;11.632;2023-04-01T10:37:15;14.30;99.30
22430;DHT22;11382;48.086;11.632;2023-04-01T10:46:44;14.80;98.50
22430;DHT22;11382;48.086;11.632;2023-04-01T10:49:37;14.30;98.50
22430;DHT22;11382;48.086;11.632;2023-04-01T10:52:33;13.50;99.50
22430;DHT22;11382;48.086;11.632;2023-04-01T10:56:09;13.70;99.90
22430;DHT22;11382;48.086;11.632;2023-04-01T10:59:25;14.00;99.90
22430;DHT22;11382;48.086;11.632;2023-04-01T11:06:28;13.20;99.90
22430;DHT22;11382;48.086;11.632;2023-04-01T11:09:26;13.10;99.90
22430;DHT22;11382;48.086;11.632;2023-04-01T11:15:33;12.70;99.90
22430;DHT22;11382;48.086;11.632;2023-04-01T11:18:30;13.20;99.90
22430;DHT22;11382;48.086;11.632;2023-04-01T11:24:29;13.20;99.90
22430;DHT22;11382;48.086;11.632;2023-04-01T11:27:25;13.00;99.90
22430;DHT22;11382;48.086;11.632;2023-04-01T11:30:28;12.70;99.90
22430;DHT22;11382;48.086;11.632;2023-04-01T11:33:00;13.10;99.90
22430;DHT22;11382;48.086;11.632;2023-04-01T11:35:39;13.10;99.90
22430;DHT22;11382;48.086;11.632;2023-04-01T11:38:23;13.20;99.90
22430;DHT22;11382;48.086;11.632;2023-04-01T11:41:04;13.70;99.90
22430;DHT22;11382;48.086;11.632;2023-04-01T11:44:04;13.80;99.90
22430;DHT22;11382;48.086;11.632;2023-04-01T11:47:10;13.00;99.90
22430;DHT22;11382;48.086;11.632;2023-04-01T11:49:50;12.10;99.90
22430;DHT22;11382;48.086;11.632;2023-04-01T11:52:51;11.60;99.90
22430;DHT22;11382;48.086;11.632;2023-04-01T11:55:31;11.10;99.90
22430;DHT22;11382;48.086;11.632;2023-04-01T11:58:23;10.80;99.90
22430;DHT22;11382;48.086;11.632;2023-04-01T12:01:10;10.90;99.90
22430;DHT22;11382;48.086;11.632;2023-04-01T12:04:00;10.90;99.90
22430;DHT22;11382;48.086;11.632;2023-04-01T12:06:41;11.20;99.90
22430;DHT22;11382;48.086;11.632;2023-04-01T12:09:18;11.30;99.90
22430;DHT22;11382;48.086;11.632;2023-04-01T12:11:55;11.30;99.90
22430;DHT22;11382;48.086;11.632;2023-04-01T12:14:32;10.90;99.90
22430;DHT22;11382;48.086;11.632;2023-04-01T12:17:09;10.80;99.90
22430;DHT22;11382;48.086;11.632;2023-04-01T12:19:48;10.50;99.90
22430;DHT22;11382;48.086;11.632;2023-04-01T12:22:28;10.30;99.90
22430;DHT22;11382;48.086;11.632;2023-04-01T12:25:18;10.50;99.90
22430;DHT22;11382;48.086;11.632;2023-04-01T12:27:58;10.30;99.90
22430;DHT22;11382;48.086;11.632;2023-04-01T12:30:47;10.50;99.90
22430;DHT22;11382;48.086;11.632;2023-04-01T12:33:45;10.60;99.90
22430;DHT22;11382;48.086;11.632;2023-04-01T12:36:30;10.10;99.90
22430;DHT22;11382;48.086;11.632;2023-04-01T12:39:17;10.00;99.90
22430;DHT22;11382;48.086;11.632;2023-04-01T12:41:52;9.80;99.90
22430;DHT22;11382;48.086;11.632;2023-04-01T12:44:47;9.60;99.90
22430;DHT22;11382;48.086;11.632;2023-04-01T12:47:47;9.70;99.90
22430;DHT22;11382;48.086;11.632;2023-04-01T12:50:44;9.70;99.90
22430;DHT22;11382;48.086;11.632;2023-04-01T12:53:47;9.60;99.90
22430;DHT22;11382;48.086;11.632;2023-04-01T12:56:26;9.50;99.90
22430;DHT22;11382;48.086;11.632;2023-04-01T12:59:16;9.40;99.90
22430;DHT22;11382;48.086;11.632;2023-04-01T13:02:09;9.50;99.90
22430;DHT22;11382;48.086;11.632;2023-04-01T13:04:56;9.60;99.90
22430;DHT22;11382;48.086;11.632;2023-04-01T13:07:52;9.50;99.90
22430;DHT22;11382;48.086;11.632;2023-04-01T13:10:31;9.30;99.90
22430;DHT22;11382;48.086;11.632;2023-04-01T13:13:13;9.20;99.90
22430;DHT22;11382;48.086;11.632;2023-04-01T13:15:47;9.20;99.90
22430;DHT22;11382;48.086;11.632;2023-04-01T13:18:25;9.30;99.90
22430;DHT22;11382;48.086;11.632;2023-04-01T13:21:04;9.10;99.90
22430;DHT22;11382;48.086;11.632;2023-04-01T13:23:42;9.10;99.90
22430;DHT22;11382;48.086;11.632;2023-04-01T13:26:20;9.20;99.90
22430;DHT22;11382;48.086;11.632;2023-04-01T13:28:56;9.10;99.90
22430;DHT22;11382;48.086;11.632;2023-04-01T13:31:41;9.20;99.90
22430;DHT22;11382;48.086;11.632;2023-04-01T13:34:26;9.20;99.90
22430;DHT22;11382;48.086;11.632;2023-04-01T13:37:10;9.00;99.90
22430;DHT22;11382;48.086;11.632;2023-04-01T13:39:53;9.10;99.90
22430;DHT22;11382;48.086;11.632;2023-04-01T13:42:26;9.00;99.90
22430;DHT22;11382;48.086;11.632;2023-04-01T13:45:00;9.00;99.90
22430;DHT22;11382;48.086;11.632;2023-04-01T13:48:18;9.00;99.90
22430;DHT22;11382;48.086;11.632;2023-04-01T13:56:57;9.10;99.90
22430;DHT22;11382;48.086;11.632;2023-04-01T14:02:47;9.20;99.90
22430;DHT22;11382;48.086;11.632;2023-04-01T14:05:51;9.50;99.90
22430;DHT22;11382;48.086;11.632;2023-04-01T14:08:34;9.60;99.90
22430;DHT22;11382;48.086;11.632;2023-04-01T14:11:13;9.70;99.90
22430;DHT22;11382;48.086;11.632;2023-04-01T14:13:51;9.70;99.90
22430;DHT22;11382;48.086;11.632;2023-04-01T14:16:48;9.60;99.90
22430;DHT22;11382;48.086;11.632;2023-04-01T14:19:28;9.30;99.90
22430;DHT22;11382;48.086;11.632;2023-04-01T14:22:05;9.50;99.90
22430;DHT22;11382;48.086;11.632;2023-04-01T14:27:48;9.30;99.90
22430;DHT22;11382;48.086;11.632;2023-04-01T14:30:39;9.40;99.90
22430;DHT22;11382;48.086;11.632;2023-04-01T14:33:19;9.40;99.90
22430;DHT22;11382;48.086;11.632;2023-04-01T14:36:01;9.60;99.90
22430;DHT22;11382;48.086;11.632;2023-04-01T14:38:47;9.70;99.90
22430;DHT22;11382;48.086;11.632;2023-04-01T14:41:28;9.70;99.90
22430;DHT22;11382;48.086;11.632;2023-04-01T14:44:15;9.80;99.90
22430;DHT22;11382;48.086;11.632;2023-04-01T14:49:48;9.80;99.90
22430;DHT22;11382;48.086;11.632;2023-04-01T14:52:25;10.00;99.90
22430;DHT22;11382;48.086;11.632;2023-04-01T14:54:56;10.10;99.90
22430;DHT22;11382;48.086;11.632;2023-04-01T14:57:27;10.00;99.90
22430;DHT22;11382;48.086;11.632;2023-04-01T15:00:09;9.90;99.90
22430;DHT22;11382;48.086;11.632;2023-04-01T15:02:47;10.00;99.90
22430;DHT22;11382;48.086;11.632;2023-04-01T15:05:32;9.90;99.90
22430;DHT22;11382;48.086;11.632;2023-04-01T15:08:20;9.70;99.90
22430;DHT22;11382;48.086;11.632;2023-04-01T15:11:00;9.70;99.90
22430;DHT22;11382;48.086;11.632;2023-04-01T15:13:37;9.70;99.90
22430;DHT22;11382;48.086;11.632;2023-04-01T15:16:20;9.60;99.90
22430;DHT22;11382;48.086;11.632;2023-04-01T15:19:00;9.60;99.90
22430;DHT22;11382;48.086;11.632;2023-04-01T15:21:49;9.50;99.90
22430;DHT22;11382;48.086;11.632;2023-04-01T15:24:22;9.40;99.90
22430;DHT22;11382;48.086;11.632;2023-04-01T15:27:20;9.40;99.90
22430;DHT22;11382;48.086;11.632;2023-04-01T15:30:04;9.30;99.90
22430;DHT22;11382;48.086;11.632;2023-04-01T15:32:46;9.40;99.90
22430;DHT22;11382;48.086;11.632;2023-04-01T15:35:30;9.50;99.90
22430;DHT22;11382;48.086;11.632;2023-04-01T15:38:06;9.80;99.90
22430;DHT22;11382;48.086;11.632;2023-04-01T15:40:42;9.90;99.90
22430;DHT22;11382;48.086;11.632;2023-04-01T15:43:23;10.20;99.90
22430;DHT22;11382;48.086;11.632;2023-04-01T15:45:58;10.10;99.90
22430;DHT22;11382;48.086;11.632;2023-04-01T15:48:50;10.00;99.90
22430;DHT22;11382;48.086;11.632;2023-04-01T15:51:29;10.10;99.90
22430;DHT22;11382;48.086;11.632;2023-04-01T15:57:25;10.00;99.90
22430;DHT22;11382;48.086;11.632;2023-04-01T16:00:13;9.90;99.90
22430;DHT22;11382;48.086;11.632;2023-04-01T16:02:48;9.90;99.90
22430;DHT22;11382;48.086;11.632;2023-04-01T16:05:32;10.10;99.90
22430;DHT22;11382;48.086;11.632;2023-04-01T16:08:16;10.10;99.90
22430;DHT22;11382;48.086;11.632;2023-04-01T16:10:56;10.20;99.90
22430;DHT22;11382;48.086;11.632;2023-04-01T16:13:38;10.20;99.90
22430;DHT22;11382;48.086;11.632;2023-04-01T16:16:19;10.20;99.90
22430;DHT22;11382;48.086;11.632;2023-04-01T16:19:01;10.10;99.90
22430;DHT22;11382;48.086;11.632;2023-04-01T16:21:43;10.00;99.90
22430;DHT22;11382;48.086;11.632;2023-04-01T16:24:19;10.00;99.90
22430;DHT22;11382;48.086;11.632;2023-04-01T16:26:53;9.90;99.90
22430;DHT22;11382;48.086;11.632;2023-04-01T16:29:28;9.90;99.90
22430;DHT22;11382;48.086;11.632;2023-04-01T16:32:14;9.90;99.90
22430;DHT22;11382;48.086;11.632;2023-04-01T16:34:54;9.90;99.90
22430;DHT22;11382;48.086;11.632;2023-04-01T16:37:32;9.80;99.90
22430;DHT22;11382;48.086;11.632;2023-04-01T16:40:11;9.80;99.90
22430;DHT22;11382;48.086;11.632;2023-04-01T16:42:48;9.70;99.90
22430;DHT22;11382;48.086;11.632;2023-04-01T16:45:25;9.60;99.90
22430;DHT22;11382;48.086;11.632;2023-04-01T16:48:00;9.60;99.90
22430;DHT22;11382;48.086;11.632;2023-04-01T16:50:44;9.60;99.90
22430;DHT22;11382;48.086;11.632;2023-04-01T16:53:25;9.50;99.90
22430;DHT22;11382;48.086;11.632;2023-04-01T16:56:08;9.50;99.90
22430;DHT22;11382;48.086;11.632;2023-04-01T16:58:42;9.40;99.90
22430;DHT22;11382;48.086;11.632;2023-04-01T17:01:13;9.40;99.90
22430;DHT22;11382;48.086;11.632;2023-04-01T17:03:45;9.40;99.90
22430;DHT22;11382;48.086;11.632;2023-04-01T17:06:33;9.30;99.90
22430;DHT22;11382;48.086;11.632;2023-04-01T17:09:18;9.40;99.90
22430;DHT22;11382;48.086;11.632;2023-04-01T17:11:54;9.30;99.90
22430;DHT22;11382;48.086;11.632;2023-04-01T17:14:29;9.30;99.90
22430;DHT22;11382;48.086;11.632;2023-04-01T17:17:18;9.30;99.90
22430;DHT22;11382;48.086;11.632;2023-04-01T17:19:59;9.30;99.90
22430;DHT22;11382;48.086;11.632;2023-04-01T17:22:33;9.30;99.90
22430;DHT22;11382;48.086;11.632;2023-04-01T17:25:34;9.30;99.90
22430;DHT22;11382;48.086;11.632;2023-04-01T17:28:20;9.20;99.90
22430;DHT22;11382;48.086;11.632;2023-04-01T17:30:59;9.20;99.90
22430;DHT22;11382;48.086;11.632;2023-04-01T17:33:58;9.20;99.90
22430;DHT22;11382;48.086;11.632;2023-04-01T17:36:41;9.30;99.90
22430;DHT22;11382;48.086;11.632;2023-04-01T17:39:27;9.20;99.90
22430;DHT22;11382;48.086;11.632;2023-04-01T17:42:05;9.20;99.90
22430;DHT22;11382;48.086;11.632;2023-04-01T17:44:44;9.20;99.90
22430;DHT22;11382;48.086;11.632;2023-04-01T17:47:28;9.10;99.90
22430;DHT22;11382;48.086;11.632;2023-04-01T17:50:07;9.10;99.90